Terminal Aerodrome Forecast
Issued by NWS

Home | Current Version | Previous Version | Graphics & Text | Print | Product List | Glossary On
Versions: 1 2 3 4 5 6 7 8 9 10 11 12 13 14 15 16 17 18 19 20 21
000
FTUS43 KMPX 191800 AAA
TAFAXN
TAF AMD
KAXN 191838Z 1919/2018 17012KT 3SM BR BKN005 OVC010
     FM191930 20011KT P6SM BKN012
     FM192100 22010KT P6SM SCT015 BKN100
     FM200000 24008KT P6SM SCT250
     FM200800 30009KT P6SM SKC=

USA.gov is the U.S. government's official web portal to all federal, state and local government web resources and services.